createdAt,value
2022-07-29T00:02:26.634Z,91997.06
2022-07-29T00:04:53.956Z,91988.44
2022-07-29T00:07:21.235Z,91984.63
2022-07-29T00:09:51.157Z,91974.06
2022-07-29T00:12:25.576Z,91975.69
2022-07-29T00:14:54.112Z,91983.47
2022-07-29T00:17:21.366Z,91982.28
2022-07-29T00:19:48.607Z,91983.31
2022-07-29T00:22:15.854Z,91985.25
2022-07-29T00:24:43.120Z,91975.34
2022-07-29T00:27:10.371Z,91968.59
2022-07-29T00:29:37.655Z,91973.50
2022-07-29T00:32:04.951Z,91970.66
2022-07-29T00:34:32.292Z,91973.47
2022-07-29T00:36:59.561Z,91974.78
2022-07-29T00:39:26.801Z,91979.69
2022-07-29T00:41:54.800Z,91976.59
2022-07-29T00:44:22.048Z,91975.69
2022-07-29T00:46:49.379Z,91980.81
2022-07-29T00:49:16.674Z,91980.09
2022-07-29T00:51:44.130Z,91990.59
2022-07-29T00:54:11.730Z,91982.59
2022-07-29T00:56:39.088Z,91973.41
2022-07-29T00:59:06.357Z,91985.28
2022-07-29T01:01:33.635Z,91986.94
2022-07-29T01:04:00.911Z,91988.03
2022-07-29T01:06:28.177Z,91989.06
2022-07-29T01:08:55.446Z,91992.22
2022-07-29T01:11:22.682Z,91991.19
2022-07-29T01:13:49.944Z,91988.13
2022-07-29T01:16:17.263Z,91987.69
2022-07-29T01:18:44.562Z,91982.78
2022-07-29T01:21:11.819Z,91984.56
2022-07-29T01:23:39.077Z,91979.56
2022-07-29T01:26:06.319Z,91984.44
2022-07-29T01:28:33.592Z,91976.16
2022-07-29T01:31:00.858Z,91976.69
2022-07-29T01:33:28.130Z,91975.19
2022-07-29T01:35:55.443Z,91977.31
2022-07-29T01:38:22.692Z,91978.44
2022-07-29T01:40:49.950Z,91970.88
2022-07-29T01:43:17.229Z,91972.97
2022-07-29T01:45:44.484Z,91975.59
2022-07-29T01:48:11.737Z,91970.66
2022-07-29T01:50:38.968Z,91980.44
2022-07-29T01:53:06.236Z,91988.47
2022-07-29T01:55:33.480Z,91982.59
2022-07-29T01:58:00.731Z,91987.06
2022-07-29T02:00:27.986Z,91987.41
2022-07-29T02:02:55.403Z,91983.53
2022-07-29T02:05:22.907Z,91984.38
2022-07-29T02:07:50.250Z,91984.66
2022-07-29T02:10:17.489Z,91977.84
2022-07-29T02:12:46.582Z,91975.63
2022-07-29T02:15:18.319Z,91987.41
2022-07-29T02:17:45.572Z,91980.59
2022-07-29T02:20:12.826Z,91994.13
2022-07-29T02:22:40.069Z,91989.16
2022-07-29T02:25:07.340Z,91993.00
2022-07-29T02:27:41.477Z,91992.00
2022-07-29T02:30:08.754Z,91977.69
2022-07-29T02:32:36.000Z,91985.34
2022-07-29T02:35:03.240Z,91983.91
2022-07-29T02:37:30.499Z,91986.44
2022-07-29T02:39:57.779Z,91984.19
2022-07-29T02:42:25.038Z,91982.66
2022-07-29T02:44:52.322Z,91985.53
2022-07-29T02:47:19.572Z,91984.72
2022-07-29T02:49:46.808Z,91978.28
2022-07-29T02:52:14.073Z,91987.75
2022-07-29T02:54:41.333Z,91985.25
2022-07-29T02:57:08.583Z,91978.91
2022-07-29T02:59:35.848Z,91978.44
2022-07-29T03:02:03.196Z,91974.53
2022-07-29T03:04:30.505Z,91981.81
2022-07-29T03:06:57.777Z,91984.50
2022-07-29T03:09:25.063Z,91985.41
2022-07-29T03:11:52.325Z,91983.16
2022-07-29T03:14:19.986Z,91985.00
2022-07-29T03:16:47.731Z,91978.28
2022-07-29T03:19:14.983Z,91983.34
2022-07-29T03:21:42.213Z,91987.00
2022-07-29T03:24:10.774Z,91985.16
2022-07-29T03:26:38.289Z,91987.38
2022-07-29T03:29:05.532Z,91990.06
2022-07-29T03:31:35.100Z,91987.25
2022-07-29T03:34:02.370Z,91995.47
2022-07-29T03:36:29.604Z,91988.72
2022-07-29T03:38:56.882Z,91984.97
2022-07-29T03:41:24.136Z,91992.50
2022-07-29T03:43:51.383Z,91985.91
2022-07-29T03:46:18.833Z,91977.47
2022-07-29T03:48:46.237Z,91979.00
2022-07-29T03:51:13.523Z,91979.69
2022-07-29T03:53:40.884Z,91977.91
2022-07-29T03:56:08.142Z,91973.84
2022-07-29T03:58:35.390Z,91972.06
2022-07-29T04:01:02.649Z,91980.84
2022-07-29T04:03:29.946Z,91981.91
2022-07-29T04:05:57.251Z,91992.16
2022-07-29T04:08:24.548Z,91992.00
2022-07-29T04:10:51.789Z,91984.06
2022-07-29T04:13:38.997Z,91991.41
2022-07-29T04:16:06.308Z,91991.59
2022-07-29T04:18:33.569Z,91997.69
2022-07-29T04:21:00.830Z,91989.56
2022-07-29T04:23:28.166Z,91994.38
2022-07-29T04:25:55.404Z,91994.53
2022-07-29T04:28:22.644Z,91998.09
2022-07-29T04:30:49.942Z,92001.75
2022-07-29T04:33:17.198Z,92001.59
2022-07-29T04:35:49.982Z,91990.81
2022-07-29T04:38:17.998Z,91987.84
2022-07-29T04:40:45.240Z,91988.22
2022-07-29T04:43:13.191Z,91995.38
2022-07-29T04:45:42.810Z,92001.28
2022-07-29T04:48:10.066Z,92002.09
2022-07-29T04:50:37.306Z,92006.78
2022-07-29T04:53:04.609Z,92005.34
2022-07-29T04:55:31.868Z,92001.19
2022-07-29T04:57:59.112Z,92003.28
2022-07-29T05:00:33.374Z,92001.56
2022-07-29T05:03:01.153Z,92001.25
2022-07-29T05:05:28.494Z,92012.81
2022-07-29T05:07:55.785Z,92012.19
2022-07-29T05:10:23.033Z,92018.97
2022-07-29T05:15:17.351Z,92035.84
2022-07-29T05:17:44.635Z,92029.53
2022-07-29T05:20:11.870Z,92034.47
2022-07-29T05:22:39.147Z,92035.66
2022-07-29T05:25:09.114Z,92037.22
2022-07-29T05:27:36.578Z,92036.34
2022-07-29T05:30:03.817Z,92024.91
2022-07-29T05:32:31.088Z,92019.44
2022-07-29T05:34:58.328Z,92026.78
2022-07-29T05:37:25.606Z,92017.53
2022-07-29T05:39:56.545Z,92026.84
2022-07-29T05:42:24.589Z,92034.00
2022-07-29T05:44:51.867Z,92030.53
2022-07-29T05:47:19.237Z,92029.28
2022-07-29T05:49:46.483Z,92037.47
2022-07-29T05:52:13.715Z,92038.03
2022-07-29T05:54:41.015Z,92046.91
2022-07-29T05:57:08.261Z,92052.91
2022-07-29T05:59:35.501Z,92058.88
2022-07-29T06:02:02.784Z,92064.41
2022-07-29T06:04:30.074Z,92067.25
2022-07-29T06:06:57.369Z,92068.28
2022-07-29T06:09:24.640Z,92067.63
2022-07-29T06:11:51.884Z,92067.56
2022-07-29T06:14:19.665Z,92061.66
2022-07-29T06:16:47.099Z,92063.66
2022-07-29T06:19:14.418Z,92065.41
2022-07-29T06:21:42.027Z,92059.06
2022-07-29T06:24:09.484Z,92065.44
2022-07-29T06:26:39.629Z,92063.31
2022-07-29T06:29:07.200Z,92064.66
2022-07-29T06:31:34.447Z,92058.56
2022-07-29T06:34:01.699Z,92061.44
2022-07-29T06:36:28.974Z,92069.19
2022-07-29T06:38:56.223Z,92071.84
2022-07-29T06:41:23.733Z,92073.72
2022-07-29T06:43:54.375Z,92073.31
2022-07-29T06:46:22.569Z,92078.88
2022-07-29T06:48:50.177Z,92085.66
2022-07-29T06:51:22.908Z,92088.84
2022-07-29T06:53:59.822Z,92085.13
2022-07-29T06:56:30.314Z,92086.59
2022-07-29T06:58:57.556Z,92092.25
2022-07-29T07:01:24.882Z,92087.75
2022-07-29T07:03:52.508Z,92091.97
2022-07-29T07:06:19.758Z,92078.63
2022-07-29T07:08:47.010Z,92085.63
2022-07-29T07:11:14.431Z,92078.44
2022-07-29T07:13:41.674Z,92089.72
2022-07-29T07:16:09.122Z,92086.34
2022-07-29T07:18:36.502Z,92087.13
2022-07-29T07:21:03.744Z,92082.56
2022-07-29T07:23:30.992Z,92080.78
2022-07-29T07:25:58.359Z,92091.06
2022-07-29T07:28:25.597Z,92102.88
2022-07-29T07:30:53.019Z,92090.22
2022-07-29T07:33:20.385Z,92090.31
2022-07-29T07:35:47.657Z,92086.53
2022-07-29T07:38:14.900Z,92089.19
2022-07-29T07:40:42.166Z,92086.09
2022-07-29T07:43:09.417Z,92086.81
2022-07-29T07:45:36.725Z,92093.44
2022-07-29T07:48:04.026Z,92096.66
2022-07-29T07:50:31.274Z,92099.75
2022-07-29T07:52:58.924Z,92094.44
2022-07-29T07:55:26.324Z,92109.16
2022-07-29T07:57:53.568Z,92099.41
2022-07-29T08:00:22.936Z,92092.94
2022-07-29T08:02:51.538Z,92102.28
2022-07-29T08:05:18.967Z,92102.09
2022-07-29T08:07:46.236Z,92101.84
2022-07-29T08:10:13.499Z,92094.78
2022-07-29T08:12:40.738Z,92099.69
2022-07-29T08:15:07.997Z,92102.84
2022-07-29T08:17:35.612Z,92103.50
2022-07-29T08:20:02.939Z,92098.09
2022-07-29T08:22:30.248Z,92105.25
2022-07-29T08:24:57.495Z,92101.69
2022-07-29T08:27:43.027Z,92100.44
2022-07-29T08:30:11.424Z,92104.44
2022-07-29T08:32:53.727Z,92106.19
2022-07-29T08:35:21.988Z,92106.97
2022-07-29T08:37:49.332Z,92109.28
2022-07-29T08:40:16.656Z,92112.72
2022-07-29T08:42:43.905Z,92105.34
2022-07-29T08:45:11.257Z,92110.38
2022-07-29T08:47:38.539Z,92111.38
2022-07-29T08:50:05.789Z,92108.25
2022-07-29T08:52:33.066Z,92095.19
2022-07-29T08:55:00.312Z,92102.13
2022-07-29T08:57:27.634Z,92108.06
2022-07-29T08:59:54.993Z,92107.91
2022-07-29T09:02:22.244Z,92103.84
2022-07-29T09:04:49.495Z,92104.69
2022-07-29T09:07:16.782Z,92103.34
2022-07-29T09:09:44.038Z,92106.19
2022-07-29T09:12:11.311Z,92106.66
2022-07-29T09:14:38.590Z,92110.31
2022-07-29T09:17:06.364Z,92113.69
2022-07-29T09:19:33.964Z,92115.13
2022-07-29T09:22:03.501Z,92116.91
2022-07-29T09:24:31.192Z,92116.81
2022-07-29T09:26:58.443Z,92113.38
2022-07-29T09:29:25.679Z,92119.09
2022-07-29T09:31:55.927Z,92120.00
2022-07-29T09:34:23.332Z,92114.16
2022-07-29T09:36:50.603Z,92119.03
2022-07-29T09:39:17.995Z,92124.75
2022-07-29T09:41:49.366Z,92125.66
2022-07-29T09:44:16.605Z,92128.00
2022-07-29T09:46:43.929Z,92112.66
2022-07-29T09:49:11.957Z,92121.69
2022-07-29T09:51:39.367Z,92117.88
2022-07-29T09:54:06.608Z,92122.22
2022-07-29T09:56:33.878Z,92128.06
2022-07-29T09:59:01.146Z,92126.88
2022-07-29T10:01:28.453Z,92132.28
2022-07-29T10:03:55.767Z,92128.75
2022-07-29T10:06:23.004Z,92128.28
2022-07-29T10:08:50.245Z,92133.03
2022-07-29T10:11:19.515Z,92135.38
2022-07-29T10:13:46.770Z,92134.72
2022-07-29T10:16:14.283Z,92133.94
2022-07-29T10:18:41.603Z,92134.81
2022-07-29T10:21:09.058Z,92131.09
2022-07-29T10:23:47.029Z,92134.81
2022-07-29T10:26:14.713Z,92137.66
2022-07-29T10:28:41.992Z,92139.34
2022-07-29T10:31:10.438Z,92133.56
2022-07-29T10:33:37.723Z,92137.84
2022-07-29T10:36:04.978Z,92137.72
2022-07-29T10:38:32.217Z,92138.44
2022-07-29T10:40:59.473Z,92145.31
2022-07-29T10:43:27.159Z,92143.41
2022-07-29T10:45:57.246Z,92144.59
2022-07-29T10:48:24.968Z,92139.44
2022-07-29T10:50:52.204Z,92140.22
2022-07-29T10:53:21.472Z,92142.38
2022-07-29T10:55:49.697Z,92146.88
2022-07-29T10:58:17.891Z,92140.88
2022-07-29T11:00:45.650Z,92138.66
2022-07-29T11:03:13.152Z,92147.94
2022-07-29T11:05:40.724Z,92147.94
2022-07-29T11:08:10.713Z,92154.66
2022-07-29T11:10:46.714Z,92161.84
2022-07-29T11:13:15.159Z,92173.44
2022-07-29T11:15:44.455Z,92176.13
2022-07-29T11:18:15.170Z,92180.03
2022-07-29T11:20:44.719Z,92189.56
2022-07-29T11:23:11.972Z,92196.63
2022-07-29T11:25:50.443Z,92220.41
2022-07-29T11:28:22.731Z,92217.53
2022-07-29T11:30:50.507Z,92226.84
2022-07-29T11:33:18.209Z,92221.28
2022-07-29T11:36:05.422Z,92228.25
2022-07-29T11:38:33.259Z,92236.00
2022-07-29T11:41:00.499Z,92236.84
2022-07-29T11:43:29.583Z,92260.00
2022-07-29T11:45:59.468Z,92254.38
2022-07-29T11:48:28.846Z,92254.00
2022-07-29T11:50:59.159Z,92266.81
2022-07-29T11:53:28.922Z,92262.63
2022-07-29T11:56:00.026Z,92262.91
2022-07-29T11:58:27.295Z,92262.41
2022-07-29T12:00:55.737Z,92259.28
2022-07-29T12:03:23.425Z,92267.38
2022-07-29T12:06:01.487Z,92274.34
2022-07-29T12:08:28.756Z,92261.13
2022-07-29T12:10:56.012Z,92258.94
2022-07-29T12:13:37.100Z,92256.38
2022-07-29T12:16:05.335Z,92271.13
2022-07-29T12:18:32.734Z,92275.88
2022-07-29T12:21:03.621Z,92272.91
2022-07-29T12:23:34.446Z,92274.06
2022-07-29T12:26:02.659Z,92279.41
2022-07-29T12:28:29.914Z,92277.06
2022-07-29T12:30:58.214Z,92279.72
2022-07-29T12:33:26.633Z,92269.97
2022-07-29T12:36:03.821Z,92270.34
2022-07-29T12:38:34.363Z,92271.63
2022-07-29T12:41:01.629Z,92276.22
2022-07-29T12:43:31.890Z,92280.50
2022-07-29T12:45:59.164Z,92263.56
2022-07-29T12:48:26.442Z,92273.06
2022-07-29T12:50:53.727Z,92259.28
2022-07-29T12:53:20.983Z,92266.31
2022-07-29T12:55:48.227Z,92272.31
2022-07-29T12:58:15.493Z,92273.81
2022-07-29T13:00:42.767Z,92275.94
2022-07-29T13:03:10.065Z,92274.44
2022-07-29T13:05:38.342Z,92274.31
2022-07-29T13:08:05.610Z,92280.84
2022-07-29T13:10:47.755Z,92276.66
2022-07-29T13:13:15.019Z,92289.66
2022-07-29T13:15:42.276Z,92292.09
2022-07-29T13:18:09.546Z,92285.59
2022-07-29T13:20:36.805Z,92288.84
2022-07-29T13:23:04.066Z,92286.13
2022-07-29T13:25:31.343Z,92277.97
2022-07-29T13:27:58.596Z,92286.72
2022-07-29T13:30:25.878Z,92297.16
2022-07-29T13:32:53.159Z,92287.88
2022-07-29T13:35:20.434Z,92294.44
2022-07-29T13:37:47.702Z,92300.47
2022-07-29T13:40:14.966Z,92295.72
2022-07-29T13:42:42.210Z,92292.84
2022-07-29T13:45:09.457Z,92291.88
2022-07-29T13:47:36.731Z,92306.28
2022-07-29T13:50:06.164Z,92295.03
2022-07-29T13:52:34.202Z,92296.63
2022-07-29T13:55:01.464Z,92290.13
2022-07-29T13:57:28.706Z,92292.00
2022-07-29T13:59:56.214Z,92290.59
2022-07-29T14:02:25.433Z,92287.84
2022-07-29T14:04:53.459Z,92284.38
2022-07-29T14:07:20.751Z,92283.41
2022-07-29T14:09:48.029Z,92288.56
2022-07-29T14:12:17.289Z,92276.09
2022-07-29T14:14:44.555Z,92270.53
2022-07-29T14:17:16.562Z,92271.25
2022-07-29T14:19:43.937Z,92272.06
2022-07-29T14:22:11.188Z,92264.34
2022-07-29T14:24:38.989Z,92264.69
2022-07-29T14:27:06.369Z,92257.91
2022-07-29T14:29:37.331Z,92253.22
2022-07-29T14:32:05.638Z,92251.00
2022-07-29T14:34:32.927Z,92254.19
2022-07-29T14:37:00.167Z,92258.00
2022-07-29T14:39:31.675Z,92253.53
2022-07-29T14:41:59.965Z,92260.94
2022-07-29T14:44:27.657Z,92259.84
2022-07-29T14:46:54.913Z,92249.16
2022-07-29T14:49:22.322Z,92249.47
2022-07-29T14:51:49.614Z,92240.53
2022-07-29T14:54:16.866Z,92249.69
2022-07-29T14:56:46.799Z,92241.41
2022-07-29T14:59:14.406Z,92239.44
2022-07-29T15:01:41.740Z,92241.09
2022-07-29T15:04:09.021Z,92245.88
2022-07-29T15:06:36.256Z,92245.56
2022-07-29T15:09:03.525Z,92238.88
2022-07-29T15:11:30.769Z,92239.94
2022-07-29T15:14:04.297Z,92236.50
2022-07-29T15:16:31.622Z,92245.50
2022-07-29T15:19:01.229Z,92237.34
2022-07-29T15:21:28.749Z,92237.56
2022-07-29T15:23:56.121Z,92233.47
2022-07-29T15:26:23.378Z,92235.88
2022-07-29T15:28:50.635Z,92229.47
2022-07-29T15:31:17.941Z,92233.34
2022-07-29T15:33:45.217Z,92229.44
2022-07-29T15:36:25.470Z,92229.91
2022-07-29T15:38:59.674Z,92233.50
2022-07-29T15:41:27.493Z,92239.72
2022-07-29T15:43:54.749Z,92240.03
2022-07-29T15:46:22.088Z,92238.03
2022-07-29T15:48:49.431Z,92243.41
2022-07-29T15:51:16.802Z,92250.94
2022-07-29T15:53:53.697Z,92239.59
2022-07-29T15:56:21.119Z,92235.19
2022-07-29T15:58:48.352Z,92234.53
2022-07-29T16:01:15.650Z,92237.50
2022-07-29T16:03:46.069Z,92233.94
2022-07-29T16:06:13.665Z,92240.19
2022-07-29T16:08:40.907Z,92229.19
2022-07-29T16:11:08.161Z,92233.09
2022-07-29T16:13:35.419Z,92229.34
2022-07-29T16:16:03.219Z,92222.78
2022-07-29T16:18:30.736Z,92220.47
2022-07-29T16:20:58.086Z,92224.16
2022-07-29T16:23:25.326Z,92226.59
2022-07-29T16:26:01.126Z,92228.81
2022-07-29T16:28:28.699Z,92228.00
2022-07-29T16:30:55.956Z,92227.41
2022-07-29T16:33:23.214Z,92235.22
2022-07-29T16:35:50.472Z,92241.38
2022-07-29T16:38:17.733Z,92234.34
2022-07-29T16:40:44.986Z,92235.09
2022-07-29T16:43:12.230Z,92226.06
2022-07-29T16:45:45.360Z,92239.84
2022-07-29T16:48:13.577Z,92236.16
2022-07-29T16:50:41.495Z,92229.94
2022-07-29T16:53:10.848Z,92243.03
2022-07-29T16:55:38.080Z,92242.00
2022-07-29T16:58:05.336Z,92247.03
2022-07-29T17:00:32.640Z,92239.66
2022-07-29T17:03:00.007Z,92244.41
2022-07-29T17:05:27.294Z,92240.69
2022-07-29T17:07:54.559Z,92240.28
2022-07-29T17:10:21.792Z,92243.53
2022-07-29T17:12:49.057Z,92240.13
2022-07-29T17:15:16.292Z,92235.84
2022-07-29T17:17:55.055Z,92244.59
2022-07-29T17:20:23.725Z,92258.41
2022-07-29T17:22:50.982Z,92256.03
2022-07-29T17:25:20.773Z,92246.72
2022-07-29T17:27:48.656Z,92253.69
2022-07-29T17:30:15.931Z,92251.41
2022-07-29T17:32:43.170Z,92259.28
2022-07-29T17:35:12.432Z,92256.56
2022-07-29T17:37:39.676Z,92261.66
2022-07-29T17:40:06.922Z,92261.94
2022-07-29T17:42:34.183Z,92260.47
2022-07-29T17:45:01.464Z,92258.38
2022-07-29T17:47:28.934Z,92246.72
2022-07-29T17:49:56.189Z,92246.72
2022-07-29T17:52:23.424Z,92246.09
2022-07-29T17:54:50.778Z,92255.09
2022-07-29T17:57:18.036Z,92253.28
2022-07-29T17:59:45.384Z,92252.22
2022-07-29T18:02:12.742Z,92250.25
2022-07-29T18:04:40.147Z,92250.94
2022-07-29T18:07:07.390Z,92259.78
2022-07-29T18:09:37.853Z,92257.44
2022-07-29T18:12:05.219Z,92257.09
2022-07-29T18:14:32.464Z,92258.00
2022-07-29T18:17:00.084Z,92261.63
2022-07-29T18:19:27.621Z,92266.09
2022-07-29T18:21:56.570Z,92267.88
2022-07-29T18:24:25.898Z,92265.31
2022-07-29T18:26:53.237Z,92269.34
2022-07-29T18:29:20.475Z,92264.59
2022-07-29T18:31:47.758Z,92269.72
2022-07-29T18:34:15.094Z,92275.19
2022-07-29T18:36:42.340Z,92279.88
2022-07-29T18:39:09.599Z,92286.00
2022-07-29T18:41:50.448Z,92285.03
2022-07-29T18:44:18.254Z,92285.91
2022-07-29T18:46:47.388Z,92279.44
2022-07-29T18:49:22.800Z,92286.88
2022-07-29T18:51:50.156Z,92276.97
2022-07-29T18:54:17.504Z,92276.91
2022-07-29T18:56:44.834Z,92280.22
2022-07-29T18:59:12.107Z,92284.25
2022-07-29T19:01:39.444Z,92286.53
2022-07-29T19:04:06.765Z,92277.84
2022-07-29T19:06:33.996Z,92281.44
2022-07-29T19:09:01.254Z,92283.22
2022-07-29T19:11:28.512Z,92291.13
2022-07-29T19:13:55.747Z,92295.53
2022-07-29T19:16:23.002Z,92294.81
2022-07-29T19:18:50.412Z,92300.72
2022-07-29T19:21:17.665Z,92300.78
2022-07-29T19:24:06.438Z,92299.84
2022-07-29T19:26:32.132Z,92294.44
2022-07-29T19:28:59.396Z,92308.28
2022-07-29T19:31:26.707Z,92299.47
2022-07-29T19:33:54.007Z,92308.81
2022-07-29T19:36:21.354Z,92312.25
2022-07-29T19:38:48.597Z,92313.41
2022-07-29T19:41:15.850Z,92317.59
2022-07-29T19:43:50.887Z,92333.06
2022-07-29T19:46:20.089Z,92341.91
2022-07-29T19:48:47.551Z,92341.38
2022-07-29T19:51:15.097Z,92342.13
2022-07-29T19:53:42.355Z,92347.38
2022-07-29T19:56:09.611Z,92347.69
2022-07-29T19:58:36.876Z,92348.97
2022-07-29T20:01:10.116Z,92355.09
2022-07-29T20:03:38.142Z,92356.41
2022-07-29T20:06:05.384Z,92363.13
2022-07-29T20:08:32.646Z,92360.63
2022-07-29T20:10:59.985Z,92362.69
2022-07-29T20:13:27.243Z,92361.22
2022-07-29T20:15:54.532Z,92367.09
2022-07-29T20:18:21.800Z,92361.72
2022-07-29T20:20:49.154Z,92362.16
2022-07-29T20:23:16.388Z,92365.16
2022-07-29T20:25:43.645Z,92368.19
2022-07-29T20:28:10.930Z,92367.34
2022-07-29T20:30:38.491Z,92367.56
2022-07-29T20:33:05.980Z,92360.88
2022-07-29T20:35:33.236Z,92366.44
2022-07-29T20:38:00.478Z,92370.03
2022-07-29T20:40:27.752Z,92367.09
2022-07-29T20:42:55.070Z,92356.88
2022-07-29T20:45:22.429Z,92369.97
2022-07-29T20:47:49.670Z,92364.88
2022-07-29T20:50:16.912Z,92364.28
2022-07-29T20:52:44.167Z,92354.13
2022-07-29T20:55:11.497Z,92352.41
2022-07-29T20:57:39.978Z,92348.72
2022-07-29T21:00:07.442Z,92345.75
2022-07-29T21:02:34.790Z,92348.88
2022-07-29T21:05:02.082Z,92342.72
2022-07-29T21:07:29.333Z,92345.22
2022-07-29T21:09:56.590Z,92349.16
2022-07-29T21:12:23.828Z,92349.97
2022-07-29T21:14:51.130Z,92348.81
2022-07-29T21:17:18.378Z,92351.13
2022-07-29T21:19:48.502Z,92352.31
2022-07-29T21:22:15.781Z,92352.59
2022-07-29T21:24:43.021Z,92349.88
2022-07-29T21:27:20.120Z,92355.25
2022-07-29T21:29:48.276Z,92355.00
2022-07-29T21:32:27.582Z,92355.41
2022-07-29T21:34:57.517Z,92359.09
2022-07-29T21:37:24.764Z,92359.81
2022-07-29T21:39:52.016Z,92361.94
2022-07-29T21:42:19.300Z,92367.53
2022-07-29T21:44:46.546Z,92366.31
2022-07-29T21:47:13.791Z,92364.06
2022-07-29T21:49:41.087Z,92365.13
2022-07-29T21:52:09.077Z,92368.38
2022-07-29T21:54:36.367Z,92372.56
2022-07-29T21:57:03.913Z,92367.41
2022-07-29T21:59:32.146Z,92375.75
2022-07-29T22:02:00.368Z,92374.75
2022-07-29T22:04:27.681Z,92373.47
2022-07-29T22:06:55.004Z,92376.88
2022-07-29T22:09:22.247Z,92378.47
2022-07-29T22:11:49.501Z,92375.94
2022-07-29T22:14:16.760Z,92373.69
2022-07-29T22:16:44.033Z,92378.75
2022-07-29T22:19:11.660Z,92382.56
2022-07-29T22:21:38.932Z,92378.75
2022-07-29T22:24:06.177Z,92386.63
2022-07-29T22:26:33.417Z,92383.75
2022-07-29T22:29:00.706Z,92385.53
2022-07-29T22:31:27.942Z,92387.63
2022-07-29T22:33:55.214Z,92385.50
2022-07-29T22:36:22.494Z,92395.72
2022-07-29T22:38:51.984Z,92385.84
2022-07-29T22:41:19.477Z,92388.78
2022-07-29T22:43:46.733Z,92388.69
2022-07-29T22:46:14.036Z,92387.97
2022-07-29T22:48:41.401Z,92391.03
2022-07-29T22:51:08.687Z,92387.97
2022-07-29T22:53:37.333Z,92394.88
2022-07-29T22:56:04.611Z,92398.16
2022-07-29T22:58:31.892Z,92393.13
2022-07-29T23:00:59.141Z,92400.00
2022-07-29T23:03:26.529Z,92398.72
2022-07-29T23:05:53.869Z,92404.19
2022-07-29T23:08:21.142Z,92400.69
2022-07-29T23:10:48.384Z,92407.94
2022-07-29T23:13:15.635Z,92409.53
2022-07-29T23:15:42.912Z,92409.16
2022-07-29T23:18:10.151Z,92403.41
2022-07-29T23:20:37.400Z,92408.47
2022-07-29T23:23:04.665Z,92411.78
2022-07-29T23:25:31.897Z,92410.91
2022-07-29T23:27:59.131Z,92415.19
2022-07-29T23:30:26.434Z,92409.66
2022-07-29T23:32:53.745Z,92406.88
2022-07-29T23:35:21.023Z,92406.06
2022-07-29T23:37:48.265Z,92404.66
2022-07-29T23:40:15.536Z,92402.38
2022-07-29T23:42:42.846Z,92412.59
2022-07-29T23:45:10.098Z,92416.94
2022-07-29T23:47:37.350Z,92414.19
2022-07-29T23:50:04.607Z,92409.97
2022-07-29T23:52:31.853Z,92409.16
2022-07-29T23:55:36.609Z,92410.34
2022-07-29T23:57:46.297Z,92410.72
